sensor_id;sensor_type;location;lat;lon;timestamp;temperature;humidity
44843;DHT22;31884;52.538;13.820;2024-02-04T00:00:08;7.30;99.90
44843;DHT22;31884;52.538;13.820;2024-02-04T00:02:34;7.20;99.90
44843;DHT22;31884;52.538;13.820;2024-02-04T00:04:59;7.20;99.90
44843;DHT22;31884;52.538;13.820;2024-02-04T00:07:24;7.20;99.90
44843;DHT22;31884;52.538;13.820;2024-02-04T00:09:50;7.20;99.90
44843;DHT22;31884;52.538;13.820;2024-02-04T00:12:15;7.20;99.90
44843;DHT22;31884;52.538;13.820;2024-02-04T00:14:41;7.30;99.90
44843;DHT22;31884;52.538;13.820;2024-02-04T00:17:06;7.20;99.90
44843;DHT22;31884;52.538;13.820;2024-02-04T00:19:32;7.20;99.90
44843;DHT22;31884;52.538;13.820;2024-02-04T00:21:57;7.30;99.90
44843;DHT22;31884;52.538;13.820;2024-02-04T00:24:23;7.30;99.90
44843;DHT22;31884;52.538;13.820;2024-02-04T00:26:48;7.30;99.90
44843;DHT22;31884;52.538;13.820;2024-02-04T00:29:14;7.30;99.90
44843;DHT22;31884;52.538;13.820;2024-02-04T00:31:40;7.40;99.90
44843;DHT22;31884;52.538;13.820;2024-02-04T00:34:05;7.40;99.90
44843;DHT22;31884;52.538;13.820;2024-02-04T00:36:31;7.50;99.90
44843;DHT22;31884;52.538;13.820;2024-02-04T00:38:56;7.50;99.90
44843;DHT22;31884;52.538;13.820;2024-02-04T00:41:22;7.50;99.90
44843;DHT22;31884;52.538;13.820;2024-02-04T00:43:47;7.60;99.90
44843;DHT22;31884;52.538;13.820;2024-02-04T00:46:13;7.60;99.90
44843;DHT22;31884;52.538;13.820;2024-02-04T00:48:38;7.50;99.90
44843;DHT22;31884;52.538;13.820;2024-02-04T00:51:06;7.50;99.90
44843;DHT22;31884;52.538;13.820;2024-02-04T00:53:31;7.30;99.90
44843;DHT22;31884;52.538;13.820;2024-02-04T00:56:03;7.30;99.90
44843;DHT22;31884;52.538;13.820;2024-02-04T00:58:28;7.20;99.90
44843;DHT22;31884;52.538;13.820;2024-02-04T01:00:54;7.20;99.90
44843;DHT22;31884;52.538;13.820;2024-02-04T01:03:19;7.10;99.90
44843;DHT22;31884;52.538;13.820;2024-02-04T01:05:45;7.10;99.90
44843;DHT22;31884;52.538;13.820;2024-02-04T01:08:10;7.00;99.90
44843;DHT22;31884;52.538;13.820;2024-02-04T01:10:36;7.00;99.90
44843;DHT22;31884;52.538;13.820;2024-02-04T01:13:02;6.90;99.90
44843;DHT22;31884;52.538;13.820;2024-02-04T01:15:28;6.80;99.90
44843;DHT22;31884;52.538;13.820;2024-02-04T01:17:53;6.70;99.90
44843;DHT22;31884;52.538;13.820;2024-02-04T01:20:19;6.70;99.90
44843;DHT22;31884;52.538;13.820;2024-02-04T01:22:44;6.60;99.90
44843;DHT22;31884;52.538;13.820;2024-02-04T01:25:10;6.60;99.90
44843;DHT22;31884;52.538;13.820;2024-02-04T01:27:35;6.50;99.90
44843;DHT22;31884;52.538;13.820;2024-02-04T01:30:01;6.50;99.90
44843;DHT22;31884;52.538;13.820;2024-02-04T01:32:26;6.40;99.90
44843;DHT22;31884;52.538;13.820;2024-02-04T01:34:52;6.40;99.90
44843;DHT22;31884;52.538;13.820;2024-02-04T01:37:17;6.40;99.90
44843;DHT22;31884;52.538;13.820;2024-02-04T01:39:43;6.40;99.90
44843;DHT22;31884;52.538;13.820;2024-02-04T01:42:09;6.30;99.90
44843;DHT22;31884;52.538;13.820;2024-02-04T01:44:35;6.30;99.90
44843;DHT22;31884;52.538;13.820;2024-02-04T01:47:01;6.30;99.90
44843;DHT22;31884;52.538;13.820;2024-02-04T01:49:27;6.30;99.90
44843;DHT22;31884;52.538;13.820;2024-02-04T01:51:53;6.30;99.90
44843;DHT22;31884;52.538;13.820;2024-02-04T01:54:19;6.30;99.90
44843;DHT22;31884;52.538;13.820;2024-02-04T01:56:49;6.30;99.90
44843;DHT22;31884;52.538;13.820;2024-02-04T01:59:15;6.40;99.90
44843;DHT22;31884;52.538;13.820;2024-02-04T02:01:42;6.50;99.90
44843;DHT22;31884;52.538;13.820;2024-02-04T02:04:08;6.50;99.90
44843;DHT22;31884;52.538;13.820;2024-02-04T02:06:34;6.60;99.90
44843;DHT22;31884;52.538;13.820;2024-02-04T02:09:06;6.60;99.90
44843;DHT22;31884;52.538;13.820;2024-02-04T02:11:44;6.60;99.90
44843;DHT22;31884;52.538;13.820;2024-02-04T02:14:16;6.60;99.90
44843;DHT22;31884;52.538;13.820;2024-02-04T02:16:44;6.60;99.90
44843;DHT22;31884;52.538;13.820;2024-02-04T02:19:32;6.60;99.90
44843;DHT22;31884;52.538;13.820;2024-02-04T02:22:31;6.40;99.90
44843;DHT22;31884;52.538;13.820;2024-02-04T02:25:03;6.30;99.90
44843;DHT22;31884;52.538;13.820;2024-02-04T02:27:30;6.20;99.90
44843;DHT22;31884;52.538;13.820;2024-02-04T02:29:55;6.20;99.90
44843;DHT22;31884;52.538;13.820;2024-02-04T02:32:21;6.10;99.90
44843;DHT22;31884;52.538;13.820;2024-02-04T02:34:47;5.90;99.90
44843;DHT22;31884;52.538;13.820;2024-02-04T02:37:29;5.90;99.90
44843;DHT22;31884;52.538;13.820;2024-02-04T02:40:30;5.90;99.90
44843;DHT22;31884;52.538;13.820;2024-02-04T02:43:01;5.90;99.90
44843;DHT22;31884;52.538;13.820;2024-02-04T02:45:28;6.00;99.90
44843;DHT22;31884;52.538;13.820;2024-02-04T02:47:54;6.00;99.90
44843;DHT22;31884;52.538;13.820;2024-02-04T02:50:20;6.00;99.90
44843;DHT22;31884;52.538;13.820;2024-02-04T02:52:46;6.00;99.90
44843;DHT22;31884;52.538;13.820;2024-02-04T02:55:11;6.10;99.90
44843;DHT22;31884;52.538;13.820;2024-02-04T02:57:37;6.10;99.90
44843;DHT22;31884;52.538;13.820;2024-02-04T03:00:03;6.20;99.90
44843;DHT22;31884;52.538;13.820;2024-02-04T03:02:31;6.20;99.90
44843;DHT22;31884;52.538;13.820;2024-02-04T03:04:56;6.30;99.90
44843;DHT22;31884;52.538;13.820;2024-02-04T03:07:22;6.30;99.90
44843;DHT22;31884;52.538;13.820;2024-02-04T03:09:47;6.30;99.90
44843;DHT22;31884;52.538;13.820;2024-02-04T03:12:13;6.40;99.90
44843;DHT22;31884;52.538;13.820;2024-02-04T03:14:38;6.40;99.90
44843;DHT22;31884;52.538;13.820;2024-02-04T03:17:04;6.50;99.90
44843;DHT22;31884;52.538;13.820;2024-02-04T03:19:29;6.50;99.90
44843;DHT22;31884;52.538;13.820;2024-02-04T03:21:55;6.60;99.90
44843;DHT22;31884;52.538;13.820;2024-02-04T03:24:20;6.60;99.90
44843;DHT22;31884;52.538;13.820;2024-02-04T03:26:46;6.60;99.90
44843;DHT22;31884;52.538;13.820;2024-02-04T03:29:11;6.60;99.90
44843;DHT22;31884;52.538;13.820;2024-02-04T03:31:37;6.70;99.90
44843;DHT22;31884;52.538;13.820;2024-02-04T03:34:02;6.70;99.90
44843;DHT22;31884;52.538;13.820;2024-02-04T03:36:28;6.70;99.90
44843;DHT22;31884;52.538;13.820;2024-02-04T03:38:54;6.70;99.90
44843;DHT22;31884;52.538;13.820;2024-02-04T03:41:19;6.70;99.90
44843;DHT22;31884;52.538;13.820;2024-02-04T03:43:45;6.70;99.90
44843;DHT22;31884;52.538;13.820;2024-02-04T03:46:14;6.70;99.90
44843;DHT22;31884;52.538;13.820;2024-02-04T03:48:40;6.70;99.90
44843;DHT22;31884;52.538;13.820;2024-02-04T03:51:05;6.70;99.90
44843;DHT22;31884;52.538;13.820;2024-02-04T03:53:31;6.60;99.90
44843;DHT22;31884;52.538;13.820;2024-02-04T03:55:56;6.60;99.90
44843;DHT22;31884;52.538;13.820;2024-02-04T03:58:22;6.50;99.90
44843;DHT22;31884;52.538;13.820;2024-02-04T04:00:55;6.40;99.90
44843;DHT22;31884;52.538;13.820;2024-02-04T04:03:20;6.30;99.90
44843;DHT22;31884;52.538;13.820;2024-02-04T04:05:46;6.30;99.90
44843;DHT22;31884;52.538;13.820;2024-02-04T04:08:11;6.20;99.90
44843;DHT22;31884;52.538;13.820;2024-02-04T04:10:37;6.20;99.90
44843;DHT22;31884;52.538;13.820;2024-02-04T04:13:02;6.20;99.90
44843;DHT22;31884;52.538;13.820;2024-02-04T04:15:28;6.20;99.90
44843;DHT22;31884;52.538;13.820;2024-02-04T04:17:53;6.10;99.90
44843;DHT22;31884;52.538;13.820;2024-02-04T04:20:19;6.10;99.90
44843;DHT22;31884;52.538;13.820;2024-02-04T04:22:44;6.10;99.90
44843;DHT22;31884;52.538;13.820;2024-02-04T04:25:10;6.10;99.90
44843;DHT22;31884;52.538;13.820;2024-02-04T04:27:35;6.00;99.90
44843;DHT22;31884;52.538;13.820;2024-02-04T04:30:01;6.00;99.90
44843;DHT22;31884;52.538;13.820;2024-02-04T04:32:26;6.00;99.90
44843;DHT22;31884;52.538;13.820;2024-02-04T04:34:52;6.00;99.90
44843;DHT22;31884;52.538;13.820;2024-02-04T04:37:17;6.00;99.90
44843;DHT22;31884;52.538;13.820;2024-02-04T04:39:42;6.00;99.90
44843;DHT22;31884;52.538;13.820;2024-02-04T04:42:08;6.00;99.90
44843;DHT22;31884;52.538;13.820;2024-02-04T04:44:33;6.00;99.90
44843;DHT22;31884;52.538;13.820;2024-02-04T04:46:59;6.00;99.90
44843;DHT22;31884;52.538;13.820;2024-02-04T04:49:24;5.90;99.90
44843;DHT22;31884;52.538;13.820;2024-02-04T04:51:50;5.90;99.90
44843;DHT22;31884;52.538;13.820;2024-02-04T04:54:16;5.90;99.90
44843;DHT22;31884;52.538;13.820;2024-02-04T04:56:41;5.90;99.90
44843;DHT22;31884;52.538;13.820;2024-02-04T04:59:09;5.80;99.90
44843;DHT22;31884;52.538;13.820;2024-02-04T05:01:34;5.90;99.90
44843;DHT22;31884;52.538;13.820;2024-02-04T05:04:00;5.80;99.90
44843;DHT22;31884;52.538;13.820;2024-02-04T05:06:26;5.80;99.90
44843;DHT22;31884;52.538;13.820;2024-02-04T05:08:51;5.80;99.90
44843;DHT22;31884;52.538;13.820;2024-02-04T05:11:17;5.80;99.90
44843;DHT22;31884;52.538;13.820;2024-02-04T05:13:42;5.80;99.90
44843;DHT22;31884;52.538;13.820;2024-02-04T05:16:08;5.80;99.90
44843;DHT22;31884;52.538;13.820;2024-02-04T05:18:33;5.90;99.90
44843;DHT22;31884;52.538;13.820;2024-02-04T05:21:01;5.90;99.90
44843;DHT22;31884;52.538;13.820;2024-02-04T05:23:27;5.90;99.90
44843;DHT22;31884;52.538;13.820;2024-02-04T05:25:53;5.90;99.90
44843;DHT22;31884;52.538;13.820;2024-02-04T05:28:18;5.90;99.90
44843;DHT22;31884;52.538;13.820;2024-02-04T05:30:44;5.90;99.90
44843;DHT22;31884;52.538;13.820;2024-02-04T05:33:13;5.90;99.90
44843;DHT22;31884;52.538;13.820;2024-02-04T05:35:39;5.90;99.90
44843;DHT22;31884;52.538;13.820;2024-02-04T05:38:06;6.00;99.90
44843;DHT22;31884;52.538;13.820;2024-02-04T05:40:32;6.00;99.90
44843;DHT22;31884;52.538;13.820;2024-02-04T05:42:58;6.00;99.90
44843;DHT22;31884;52.538;13.820;2024-02-04T05:45:23;6.00;99.90
44843;DHT22;31884;52.538;13.820;2024-02-04T05:47:48;6.10;99.90
44843;DHT22;31884;52.538;13.820;2024-02-04T05:50:14;6.10;99.90
44843;DHT22;31884;52.538;13.820;2024-02-04T05:52:40;6.10;99.90
44843;DHT22;31884;52.538;13.820;2024-02-04T05:55:05;6.20;99.90
44843;DHT22;31884;52.538;13.820;2024-02-04T05:57:31;6.20;99.90
44843;DHT22;31884;52.538;13.820;2024-02-04T05:59:56;6.20;99.90
44843;DHT22;31884;52.538;13.820;2024-02-04T06:02:24;6.20;99.90
44843;DHT22;31884;52.538;13.820;2024-02-04T06:04:50;6.20;99.90
44843;DHT22;31884;52.538;13.820;2024-02-04T06:07:15;6.20;99.90
44843;DHT22;31884;52.538;13.820;2024-02-04T06:09:41;6.10;99.90
44843;DHT22;31884;52.538;13.820;2024-02-04T06:12:06;6.00;99.90
44843;DHT22;31884;52.538;13.820;2024-02-04T06:14:33;5.90;99.90
44843;DHT22;31884;52.538;13.820;2024-02-04T06:17:00;5.80;99.90
44843;DHT22;31884;52.538;13.820;2024-02-04T06:19:25;5.80;99.90
44843;DHT22;31884;52.538;13.820;2024-02-04T06:21:50;5.80;99.90
44843;DHT22;31884;52.538;13.820;2024-02-04T06:24:16;5.90;99.90
44843;DHT22;31884;52.538;13.820;2024-02-04T06:26:41;5.90;99.90
44843;DHT22;31884;52.538;13.820;2024-02-04T06:29:07;5.90;99.90
44843;DHT22;31884;52.538;13.820;2024-02-04T06:31:32;5.90;99.90
44843;DHT22;31884;52.538;13.820;2024-02-04T06:33:58;6.00;99.90
44843;DHT22;31884;52.538;13.820;2024-02-04T06:36:23;6.00;99.90
44843;DHT22;31884;52.538;13.820;2024-02-04T06:38:49;6.00;99.90
44843;DHT22;31884;52.538;13.820;2024-02-04T06:41:14;6.00;99.90
44843;DHT22;31884;52.538;13.820;2024-02-04T06:43:40;6.00;99.90
44843;DHT22;31884;52.538;13.820;2024-02-04T06:46:05;6.00;99.90
44843;DHT22;31884;52.538;13.820;2024-02-04T06:48:31;5.90;99.90
44843;DHT22;31884;52.538;13.820;2024-02-04T06:50:56;5.90;99.90
44843;DHT22;31884;52.538;13.820;2024-02-04T06:53:21;5.80;99.90
44843;DHT22;31884;52.538;13.820;2024-02-04T06:55:47;5.80;99.90
44843;DHT22;31884;52.538;13.820;2024-02-04T06:58:12;5.80;99.90
44843;DHT22;31884;52.538;13.820;2024-02-04T07:00:38;5.70;99.90
44843;DHT22;31884;52.538;13.820;2024-02-04T07:03:04;5.70;99.90
44843;DHT22;31884;52.538;13.820;2024-02-04T07:05:29;5.80;99.90
44843;DHT22;31884;52.538;13.820;2024-02-04T07:07:56;5.80;99.90
44843;DHT22;31884;52.538;13.820;2024-02-04T07:10:21;5.90;99.90
44843;DHT22;31884;52.538;13.820;2024-02-04T07:12:47;6.00;99.90
44843;DHT22;31884;52.538;13.820;2024-02-04T07:15:13;6.10;99.90
44843;DHT22;31884;52.538;13.820;2024-02-04T07:17:38;6.10;99.90
44843;DHT22;31884;52.538;13.820;2024-02-04T07:20:04;6.20;99.90
44843;DHT22;31884;52.538;13.820;2024-02-04T07:22:30;6.30;99.90
44843;DHT22;31884;52.538;13.820;2024-02-04T07:24:56;6.40;99.90
44843;DHT22;31884;52.538;13.820;2024-02-04T07:27:22;6.50;99.90
44843;DHT22;31884;52.538;13.820;2024-02-04T07:29:47;6.60;99.90
44843;DHT22;31884;52.538;13.820;2024-02-04T07:32:14;6.70;99.90
44843;DHT22;31884;52.538;13.820;2024-02-04T07:34:40;6.80;99.90
44843;DHT22;31884;52.538;13.820;2024-02-04T07:37:05;6.80;99.90
44843;DHT22;31884;52.538;13.820;2024-02-04T07:39:31;6.90;99.90
44843;DHT22;31884;52.538;13.820;2024-02-04T07:41:57;6.90;99.90
44843;DHT22;31884;52.538;13.820;2024-02-04T07:44:28;6.90;99.90
44843;DHT22;31884;52.538;13.820;2024-02-04T07:46:54;6.90;99.90
44843;DHT22;31884;52.538;13.820;2024-02-04T07:49:20;6.90;99.90
44843;DHT22;31884;52.538;13.820;2024-02-04T07:51:46;6.90;99.90
44843;DHT22;31884;52.538;13.820;2024-02-04T07:54:11;7.00;99.90
44843;DHT22;31884;52.538;13.820;2024-02-04T07:56:37;7.00;99.90
44843;DHT22;31884;52.538;13.820;2024-02-04T07:59:02;7.00;99.90
44843;DHT22;31884;52.538;13.820;2024-02-04T08:01:29;7.00;99.90
44843;DHT22;31884;52.538;13.820;2024-02-04T08:03:55;7.00;99.90
44843;DHT22;31884;52.538;13.820;2024-02-04T08:06:20;7.10;99.90
44843;DHT22;31884;52.538;13.820;2024-02-04T08:08:46;7.10;99.90
44843;DHT22;31884;52.538;13.820;2024-02-04T08:11:19;7.20;99.90
44843;DHT22;31884;52.538;13.820;2024-02-04T08:13:45;7.20;99.90
44843;DHT22;31884;52.538;13.820;2024-02-04T08:16:11;7.30;99.90
44843;DHT22;31884;52.538;13.820;2024-02-04T08:18:37;7.30;99.90
44843;DHT22;31884;52.538;13.820;2024-02-04T08:21:02;7.30;99.90
44843;DHT22;31884;52.538;13.820;2024-02-04T08:23:28;7.40;99.90
44843;DHT22;31884;52.538;13.820;2024-02-04T08:25:54;7.50;99.90
44843;DHT22;31884;52.538;13.820;2024-02-04T08:28:19;7.60;99.90
44843;DHT22;31884;52.538;13.820;2024-02-04T08:30:45;7.60;99.90
44843;DHT22;31884;52.538;13.820;2024-02-04T08:33:11;7.70;99.90
44843;DHT22;31884;52.538;13.820;2024-02-04T08:35:36;7.80;99.90
44843;DHT22;31884;52.538;13.820;2024-02-04T08:38:02;7.80;99.90
44843;DHT22;31884;52.538;13.820;2024-02-04T08:40:28;7.90;99.90
44843;DHT22;31884;52.538;13.820;2024-02-04T08:42:53;8.00;99.90
44843;DHT22;31884;52.538;13.820;2024-02-04T08:45:18;8.00;99.90
44843;DHT22;31884;52.538;13.820;2024-02-04T08:47:44;8.00;99.90
44843;DHT22;31884;52.538;13.820;2024-02-04T08:50:10;8.00;99.90
44843;DHT22;31884;52.538;13.820;2024-02-04T08:52:37;8.10;99.90
44843;DHT22;31884;52.538;13.820;2024-02-04T08:55:03;8.20;99.90
44843;DHT22;31884;52.538;13.820;2024-02-04T08:57:29;8.20;99.90
44843;DHT22;31884;52.538;13.820;2024-02-04T08:59:55;8.20;99.90
44843;DHT22;31884;52.538;13.820;2024-02-04T09:02:20;8.20;99.90
44843;DHT22;31884;52.538;13.820;2024-02-04T09:04:46;8.30;99.90
44843;DHT22;31884;52.538;13.820;2024-02-04T09:07:12;8.30;99.90
44843;DHT22;31884;52.538;13.820;2024-02-04T09:09:37;8.30;99.90
44843;DHT22;31884;52.538;13.820;2024-02-04T09:12:03;8.40;99.90
44843;DHT22;31884;52.538;13.820;2024-02-04T09:14:28;8.40;99.90
44843;DHT22;31884;52.538;13.820;2024-02-04T09:16:54;8.40;99.90
44843;DHT22;31884;52.538;13.820;2024-02-04T09:19:19;8.50;99.90
44843;DHT22;31884;52.538;13.820;2024-02-04T09:21:45;8.50;99.20
44843;DHT22;31884;52.538;13.820;2024-02-04T09:24:10;8.50;98.80
44843;DHT22;31884;52.538;13.820;2024-02-04T09:26:36;8.50;98.90
44843;DHT22;31884;52.538;13.820;2024-02-04T09:29:02;8.50;98.60
44843;DHT22;31884;52.538;13.820;2024-02-04T09:31:27;8.60;98.20
44843;DHT22;31884;52.538;13.820;2024-02-04T09:33:53;8.60;97.80
44843;DHT22;31884;52.538;13.820;2024-02-04T09:36:19;8.70;98.60
44843;DHT22;31884;52.538;13.820;2024-02-04T09:38:44;8.60;97.60
44843;DHT22;31884;52.538;13.820;2024-02-04T09:41:10;8.60;96.80
44843;DHT22;31884;52.538;13.820;2024-02-04T09:43:36;8.60;96.90
44843;DHT22;31884;52.538;13.820;2024-02-04T09:46:03;8.50;96.50
44843;DHT22;31884;52.538;13.820;2024-02-04T09:48:31;8.60;96.60
44843;DHT22;31884;52.538;13.820;2024-02-04T09:50:57;8.60;96.10
44843;DHT22;31884;52.538;13.820;2024-02-04T09:53:31;8.50;96.40
44843;DHT22;31884;52.538;13.820;2024-02-04T09:55:58;8.50;96.00
44843;DHT22;31884;52.538;13.820;2024-02-04T09:58:24;8.50;95.70
44843;DHT22;31884;52.538;13.820;2024-02-04T10:00:51;8.50;96.50
44843;DHT22;31884;52.538;13.820;2024-02-04T10:03:16;8.60;96.20
44843;DHT22;31884;52.538;13.820;2024-02-04T10:05:42;8.60;95.40
44843;DHT22;31884;52.538;13.820;2024-02-04T10:08:07;8.70;95.50
44843;DHT22;31884;52.538;13.820;2024-02-04T10:10:33;8.70;95.40
44843;DHT22;31884;52.538;13.820;2024-02-04T10:12:58;8.70;94.90
44843;DHT22;31884;52.538;13.820;2024-02-04T10:15:24;8.80;94.80
44843;DHT22;31884;52.538;13.820;2024-02-04T10:17:55;8.80;94.70
44843;DHT22;31884;52.538;13.820;2024-02-04T10:20:20;8.70;94.30
44843;DHT22;31884;52.538;13.820;2024-02-04T10:22:46;8.80;93.90
44843;DHT22;31884;52.538;13.820;2024-02-04T10:25:11;8.70;93.90
44843;DHT22;31884;52.538;13.820;2024-02-04T10:27:37;8.70;93.40
44843;DHT22;31884;52.538;13.820;2024-02-04T10:30:04;8.70;93.70
44843;DHT22;31884;52.538;13.820;2024-02-04T10:32:30;8.70;93.90
44843;DHT22;31884;52.538;13.820;2024-02-04T10:34:58;8.80;93.70
44843;DHT22;31884;52.538;13.820;2024-02-04T10:37:24;8.80;93.70
44843;DHT22;31884;52.538;13.820;2024-02-04T10:39:50;8.80;93.10
44843;DHT22;31884;52.538;13.820;2024-02-04T10:42:17;8.90;93.00
44843;DHT22;31884;52.538;13.820;2024-02-04T10:44:49;9.10;92.60
44843;DHT22;31884;52.538;13.820;2024-02-04T10:47:22;9.10;91.50
44843;DHT22;31884;52.538;13.820;2024-02-04T10:49:52;9.20;91.10
44843;DHT22;31884;52.538;13.820;2024-02-04T10:52:23;9.30;90.80
44843;DHT22;31884;52.538;13.820;2024-02-04T10:54:52;9.30;90.70
44843;DHT22;31884;52.538;13.820;2024-02-04T10:57:21;9.40;90.60
44843;DHT22;31884;52.538;13.820;2024-02-04T10:59:48;9.50;89.60
44843;DHT22;31884;52.538;13.820;2024-02-04T11:02:15;9.50;89.80
44843;DHT22;31884;52.538;13.820;2024-02-04T11:04:42;9.50;90.00
44843;DHT22;31884;52.538;13.820;2024-02-04T11:07:09;9.50;90.50
44843;DHT22;31884;52.538;13.820;2024-02-04T11:09:36;9.50;89.20
44843;DHT22;31884;52.538;13.820;2024-02-04T11:12:04;9.40;88.40
44843;DHT22;31884;52.538;13.820;2024-02-04T11:14:32;9.50;88.80
44843;DHT22;31884;52.538;13.820;2024-02-04T11:28:04;9.20;87.90
44843;DHT22;31884;52.538;13.820;2024-02-04T11:30:33;9.20;87.70
44843;DHT22;31884;52.538;13.820;2024-02-04T11:33:06;9.10;86.10
44843;DHT22;31884;52.538;13.820;2024-02-04T11:35:36;9.00;86.90
44843;DHT22;31884;52.538;13.820;2024-02-04T11:38:03;9.00;85.90
44843;DHT22;31884;52.538;13.820;2024-02-04T11:40:36;8.90;85.50
44843;DHT22;31884;52.538;13.820;2024-02-04T11:43:06;8.90;85.30
44843;DHT22;31884;52.538;13.820;2024-02-04T11:45:32;8.90;85.40
44843;DHT22;31884;52.538;13.820;2024-02-04T11:48:01;8.90;85.60
44843;DHT22;31884;52.538;13.820;2024-02-04T11:50:28;8.90;86.30
44843;DHT22;31884;52.538;13.820;2024-02-04T11:53:13;8.90;86.60
44843;DHT22;31884;52.538;13.820;2024-02-04T11:55:40;8.90;85.90
44843;DHT22;31884;52.538;13.820;2024-02-04T11:58:06;8.80;86.30
44843;DHT22;31884;52.538;13.820;2024-02-04T12:00:32;8.80;86.80
44843;DHT22;31884;52.538;13.820;2024-02-04T12:03:02;8.80;86.10
44843;DHT22;31884;52.538;13.820;2024-02-04T12:05:31;8.80;86.70
44843;DHT22;31884;52.538;13.820;2024-02-04T12:07:58;8.90;86.10
44843;DHT22;31884;52.538;13.820;2024-02-04T12:10:26;8.90;86.10
44843;DHT22;31884;52.538;13.820;2024-02-04T12:12:52;8.90;86.10
44843;DHT22;31884;52.538;13.820;2024-02-04T12:15:17;8.90;85.60
44843;DHT22;31884;52.538;13.820;2024-02-04T12:17:43;8.80;86.40
44843;DHT22;31884;52.538;13.820;2024-02-04T12:20:09;8.90;85.40
44843;DHT22;31884;52.538;13.820;2024-02-04T12:22:35;8.90;85.00
44843;DHT22;31884;52.538;13.820;2024-02-04T12:25:02;8.80;85.20
44843;DHT22;31884;52.538;13.820;2024-02-04T12:27:28;8.90;84.50
44843;DHT22;31884;52.538;13.820;2024-02-04T12:29:54;8.80;84.10
44843;DHT22;31884;52.538;13.820;2024-02-04T12:32:21;8.80;84.30
44843;DHT22;31884;52.538;13.820;2024-02-04T12:34:47;8.80;84.50
44843;DHT22;31884;52.538;13.820;2024-02-04T12:37:13;8.70;83.30
44843;DHT22;31884;52.538;13.820;2024-02-04T12:39:38;8.70;84.50
44843;DHT22;31884;52.538;13.820;2024-02-04T12:42:04;8.70;84.30
44843;DHT22;31884;52.538;13.820;2024-02-04T12:44:30;8.70;84.50
44843;DHT22;31884;52.538;13.820;2024-02-04T12:46:56;8.70;83.90
44843;DHT22;31884;52.538;13.820;2024-02-04T12:49:22;8.70;83.70
44843;DHT22;31884;52.538;13.820;2024-02-04T12:51:47;8.70;83.60
44843;DHT22;31884;52.538;13.820;2024-02-04T12:54:13;8.80;83.10
44843;DHT22;31884;52.538;13.820;2024-02-04T12:59:05;8.80;83.10
44843;DHT22;31884;52.538;13.820;2024-02-04T13:01:30;8.90;83.20
44843;DHT22;31884;52.538;13.820;2024-02-04T13:03:56;8.90;83.10
44843;DHT22;31884;52.538;13.820;2024-02-04T13:06:22;8.90;82.30
44843;DHT22;31884;52.538;13.820;2024-02-04T13:08:47;8.90;82.30
44843;DHT22;31884;52.538;13.820;2024-02-04T13:11:19;9.00;82.40
44843;DHT22;31884;52.538;13.820;2024-02-04T13:13:45;9.00;82.50
44843;DHT22;31884;52.538;13.820;2024-02-04T13:16:10;9.00;82.80
44843;DHT22;31884;52.538;13.820;2024-02-04T13:18:36;9.00;82.70
44843;DHT22;31884;52.538;13.820;2024-02-04T13:21:02;8.90;82.00
44843;DHT22;31884;52.538;13.820;2024-02-04T13:23:27;8.90;82.60
44843;DHT22;31884;52.538;13.820;2024-02-04T13:25:53;8.80;81.90
44843;DHT22;31884;52.538;13.820;2024-02-04T13:28:19;8.80;81.10
44843;DHT22;31884;52.538;13.820;2024-02-04T13:30:44;8.80;82.30
44843;DHT22;31884;52.538;13.820;2024-02-04T13:33:10;8.80;81.00
44843;DHT22;31884;52.538;13.820;2024-02-04T13:35:35;8.80;81.20
44843;DHT22;31884;52.538;13.820;2024-02-04T13:38:01;8.80;81.10
44843;DHT22;31884;52.538;13.820;2024-02-04T13:40:27;8.80;81.60
44843;DHT22;31884;52.538;13.820;2024-02-04T13:42:53;8.70;80.90
44843;DHT22;31884;52.538;13.820;2024-02-04T13:45:18;8.70;80.80
44843;DHT22;31884;52.538;13.820;2024-02-04T13:47:44;8.70;81.00
44843;DHT22;31884;52.538;13.820;2024-02-04T13:50:10;8.70;81.40
44843;DHT22;31884;52.538;13.820;2024-02-04T13:52:36;8.60;81.30
44843;DHT22;31884;52.538;13.820;2024-02-04T13:55:03;8.60;81.50
44843;DHT22;31884;52.538;13.820;2024-02-04T13:57:32;8.60;81.50
44843;DHT22;31884;52.538;13.820;2024-02-04T13:59:58;8.60;81.60
44843;DHT22;31884;52.538;13.820;2024-02-04T14:02:23;8.60;81.40
44843;DHT22;31884;52.538;13.820;2024-02-04T14:04:51;8.60;81.90
44843;DHT22;31884;52.538;13.820;2024-02-04T14:07:18;8.70;81.60
44843;DHT22;31884;52.538;13.820;2024-02-04T14:09:43;8.70;81.70
44843;DHT22;31884;52.538;13.820;2024-02-04T14:12:09;8.60;81.50
44843;DHT22;31884;52.538;13.820;2024-02-04T14:14:36;8.70;81.70
44843;DHT22;31884;52.538;13.820;2024-02-04T14:17:02;8.60;81.90
44843;DHT22;31884;52.538;13.820;2024-02-04T14:19:27;8.60;82.00
44843;DHT22;31884;52.538;13.820;2024-02-04T14:21:53;8.60;81.90
44843;DHT22;31884;52.538;13.820;2024-02-04T14:24:18;8.60;82.10
44843;DHT22;31884;52.538;13.820;2024-02-04T14:26:44;8.60;82.10
44843;DHT22;31884;52.538;13.820;2024-02-04T14:29:10;8.60;82.20
44843;DHT22;31884;52.538;13.820;2024-02-04T14:31:35;8.60;81.80
44843;DHT22;31884;52.538;13.820;2024-02-04T14:34:01;8.60;82.30
44843;DHT22;31884;52.538;13.820;2024-02-04T14:36:27;8.60;82.50
44843;DHT22;31884;52.538;13.820;2024-02-04T14:38:53;8.60;82.50
44843;DHT22;31884;52.538;13.820;2024-02-04T14:41:18;8.60;82.40
44843;DHT22;31884;52.538;13.820;2024-02-04T14:43:44;8.60;82.10
44843;DHT22;31884;52.538;13.820;2024-02-04T14:46:10;8.60;82.50
44843;DHT22;31884;52.538;13.820;2024-02-04T14:48:38;8.60;82.50
44843;DHT22;31884;52.538;13.820;2024-02-04T14:51:04;8.60;82.80
44843;DHT22;31884;52.538;13.820;2024-02-04T14:53:30;8.60;82.80
44843;DHT22;31884;52.538;13.820;2024-02-04T14:55:55;8.60;83.40
44843;DHT22;31884;52.538;13.820;2024-02-04T14:58:22;8.60;83.40
44843;DHT22;31884;52.538;13.820;2024-02-04T15:00:48;8.50;83.30
44843;DHT22;31884;52.538;13.820;2024-02-04T15:03:14;8.60;83.50
44843;DHT22;31884;52.538;13.820;2024-02-04T15:05:43;8.60;83.20
44843;DHT22;31884;52.538;13.820;2024-02-04T15:08:08;8.50;83.50
44843;DHT22;31884;52.538;13.820;2024-02-04T15:10:34;8.50;83.70
44843;DHT22;31884;52.538;13.820;2024-02-04T15:13:00;8.50;83.60
44843;DHT22;31884;52.538;13.820;2024-02-04T15:15:26;8.50;83.50
44843;DHT22;31884;52.538;13.820;2024-02-04T15:17:52;8.50;83.60
44843;DHT22;31884;52.538;13.820;2024-02-04T15:20:18;8.50;83.30
44843;DHT22;31884;52.538;13.820;2024-02-04T15:22:44;8.50;83.50
44843;DHT22;31884;52.538;13.820;2024-02-04T15:25:10;8.50;84.00
44843;DHT22;31884;52.538;13.820;2024-02-04T15:27:38;8.50;84.00
44843;DHT22;31884;52.538;13.820;2024-02-04T15:30:05;8.50;83.80
44843;DHT22;31884;52.538;13.820;2024-02-04T15:32:32;8.40;84.00
44843;DHT22;31884;52.538;13.820;2024-02-04T15:34:58;8.50;84.00
44843;DHT22;31884;52.538;13.820;2024-02-04T15:37:24;8.40;84.20